Time;durP1;ratioP1;P1;durP2;ratioP2;P2;SDS_P1;SDS_P2;PMS_P1;PMS_P2;Temp;Humidity;BMP_temperature;BMP_pressure;BME280_temperature;BME280_humidity;BME280_pressure;Samples;Min_cycle;Max_cycle;Signal;HPM_P1;HPM_P2
2023/12/20 00:01:49;;;;;;;37.05;27.13;;;;;;;0.89;100.00;96627.03;5091103;28;20012;-67
2023/12/20 00:04:15;;;;;;;41.83;29.02;;;;;;;0.95;100.00;96647.53;5087477;28;20042;-67
2023/12/20 00:06:40;;;;;;;45.20;31.83;;;;;;;0.96;100.00;96670.81;5092847;28;20020;-67
2023/12/20 00:09:06;;;;;;;43.10;31.58;;;;;;;0.92;100.00;96664.06;5087957;28;20020;-67
2023/12/20 00:11:31;;;;;;;41.15;30.52;;;;;;;0.96;100.00;96668.22;5087222;28;20048;-67
2023/12/20 00:13:57;;;;;;;41.42;29.02;;;;;;;0.92;100.00;96671.00;5092814;28;20020;-67
2023/12/20 00:16:22;;;;;;;35.22;27.05;;;;;;;0.90;100.00;96665.03;5091907;28;20023;-67
2023/12/20 00:18:47;;;;;;;37.83;26.27;;;;;;;0.84;100.00;96661.78;5088632;28;20055;-67
2023/12/20 00:21:13;;;;;;;39.33;26.15;;;;;;;0.78;100.00;96669.78;5091160;28;20029;-67
2023/12/20 00:23:38;;;;;;;33.58;25.90;;;;;;;0.78;100.00;96669.78;5093669;28;20024;-67
2023/12/20 00:26:03;;;;;;;31.70;24.40;;;;;;;0.78;100.00;96664.59;5089231;28;20024;-67
2023/12/20 00:28:29;;;;;;;33.25;24.23;;;;;;;0.87;100.00;96654.78;5086738;28;20099;-67
2023/12/20 00:30:54;;;;;;;38.42;25.80;;;;;;;0.96;100.00;96644.03;5088199;28;20027;-67
2023/12/20 00:33:20;;;;;;;35.08;23.88;;;;;;;0.97;100.00;96641.41;5092407;28;20095;-67
2023/12/20 00:35:45;;;;;;;30.20;22.58;;;;;;;0.93;100.00;96641.56;5091579;28;20036;-67
2023/12/20 00:38:11;;;;;;;28.92;22.08;;;;;;;0.93;100.00;96645.03;5091147;28;20388;-67
2023/12/20 00:40:37;;;;;;;26.20;22.05;;;;;;;0.96;100.00;96644.03;5088265;28;20067;-67
2023/12/20 00:43:02;;;;;;;32.85;21.88;;;;;;;0.95;100.00;96644.94;5090884;28;20035;-67
2023/12/20 00:45:28;;;;;;;29.38;22.30;;;;;;;0.98;100.00;96644.81;5086144;28;20029;-67
2023/12/20 00:47:54;;;;;;;31.23;23.80;;;;;;;1.05;100.00;96645.44;5088407;28;20454;-67
2023/12/20 00:50:21;;;;;;;30.00;22.95;;;;;;;1.07;100.00;96638.44;5090610;28;20488;-67
2023/12/20 00:52:47;;;;;;;25.55;21.20;;;;;;;1.09;100.00;96640.06;5087635;28;20023;-67
2023/12/20 00:55:12;;;;;;;26.52;21.13;;;;;;;1.07;100.00;96648.81;5086920;28;20024;-67
2023/12/20 00:57:37;;;;;;;29.10;22.50;;;;;;;1.10;100.00;96640.91;5089471;28;20039;-67
2023/12/20 01:00:03;;;;;;;27.52;22.05;;;;;;;1.12;100.00;96645.13;5091618;28;20099;-67
2023/12/20 01:02:29;;;;;;;28.85;23.30;;;;;;;1.11;100.00;96643.44;5086489;28;20381;-67
2023/12/20 01:04:54;;;;;;;32.65;23.77;;;;;;;1.12;100.00;96649.50;5092070;28;20055;-67
2023/12/20 01:07:19;;;;;;;29.58;24.08;;;;;;;1.14;100.00;96648.50;5093361;28;20103;-67
2023/12/20 01:09:45;;;;;;;33.13;25.55;;;;;;;1.19;100.00;96644.88;5094647;28;20065;-67
2023/12/20 01:12:10;;;;;;;32.45;23.48;;;;;;;1.20;100.00;96643.97;5089858;28;20084;-67
2023/12/20 01:14:36;;;;;;;32.88;24.75;;;;;;;1.18;100.00;96650.97;5093070;28;20020;-67
2023/12/20 01:17:01;;;;;;;34.17;25.20;;;;;;;1.17;100.00;96654.47;5089986;28;20028;-67
2023/12/20 01:19:28;;;;;;;27.88;23.15;;;;;;;1.17;100.00;96655.34;5090034;28;20052;-67
2023/12/20 01:21:53;;;;;;;31.88;23.13;;;;;;;1.23;100.00;96667.22;5089271;28;20025;-67
2023/12/20 01:24:19;;;;;;;28.88;23.80;;;;;;;1.26;100.00;96664.50;5085127;28;20400;-67
2023/12/20 01:26:44;;;;;;;30.58;24.02;;;;;;;1.26;100.00;96661.91;5089090;28;20016;-67
2023/12/20 01:29:09;;;;;;;33.58;24.88;;;;;;;1.25;100.00;96668.00;5087747;28;20016;-67
2023/12/20 01:31:35;;;;;;;30.10;23.75;;;;;;;1.29;100.00;96661.78;5091437;28;20050;-68
2023/12/20 01:34:00;;;;;;;31.25;23.75;;;;;;;1.32;100.00;96647.84;5085812;28;20047;-67
2023/12/20 01:36:25;;;;;;;28.70;22.83;;;;;;;1.35;100.00;96650.34;5088973;28;20020;-67
2023/12/20 01:38:51;;;;;;;27.75;22.67;;;;;;;1.34;100.00;96633.91;5093736;28;20087;-67
2023/12/20 01:41:16;;;;;;;30.77;23.85;;;;;;;1.36;100.00;96642.47;5085936;28;20024;-67
2023/12/20 01:43:41;;;;;;;35.28;25.65;;;;;;;1.35;100.00;96640.78;5089993;28;20067;-67
2023/12/20 01:46:07;;;;;;;36.15;26.60;;;;;;;1.36;100.00;96652.03;5093407;28;20047;-67
2023/12/20 01:48:32;;;;;;;34.13;25.75;;;;;;;1.37;100.00;96661.50;5092619;28;20020;-67
2023/12/20 01:51:02;;;;;;;31.65;24.45;;;;;;;1.37;100.00;96667.50;5087227;28;20024;-67
2023/12/20 01:53:28;;;;;;;31.98;24.20;;;;;;;1.38;100.00;96679.59;5092319;28;20101;-67
2023/12/20 01:55:56;;;;;;;33.22;24.25;;;;;;;1.39;100.00;96678.66;5089088;28;20020;-67
2023/12/20 01:58:22;;;;;;;32.05;23.77;;;;;;;1.37;100.00;96677.88;5090290;28;20037;-67
2023/12/20 02:00:49;;;;;;;33.08;24.65;;;;;;;1.34;100.00;96680.63;5087122;28;20025;-67
2023/12/20 02:03:14;;;;;;;34.17;24.50;;;;;;;1.36;100.00;96681.41;5092601;28;20021;-67
2023/12/20 02:05:40;;;;;;;29.80;23.20;;;;;;;1.37;100.00;96675.28;5087556;28;20516;-67
2023/12/20 02:08:06;;;;;;;27.52;22.95;;;;;;;1.37;100.00;96664.09;5089407;28;20012;-67
2023/12/20 02:10:32;;;;;;;29.05;21.17;;;;;;;1.41;100.00;96655.28;5073907;28;20024;-67
2023/12/20 02:12:57;;;;;;;25.48;20.95;;;;;;;1.37;100.00;96654.53;5090333;28;20024;-67
2023/12/20 02:15:23;;;;;;;28.63;21.10;;;;;;;1.33;100.00;96652.16;5088840;28;20082;-67
2023/12/20 02:17:49;;;;;;;22.77;19.38;;;;;;;1.31;100.00;96648.75;5088657;28;20024;-67
2023/12/20 02:20:14;;;;;;;21.45;16.77;;;;;;;1.33;100.00;96632.22;5088108;28;20097;-67
2023/12/20 02:22:40;;;;;;;21.08;17.85;;;;;;;1.37;100.00;96626.00;5089650;28;20105;-67
2023/12/20 02:25:05;;;;;;;23.27;19.20;;;;;;;1.42;100.00;96615.44;5081515;28;20050;-67
2023/12/20 02:27:31;;;;;;;21.30;18.40;;;;;;;1.35;100.00;96614.84;5090154;28;20052;-67
2023/12/20 02:29:57;;;;;;;20.13;17.85;;;;;;;1.30;100.00;96609.00;5090398;28;20047;-67
2023/12/20 02:32:25;;;;;;;24.83;19.27;;;;;;;1.27;100.00;96606.53;5085736;28;20130;-67
2023/12/20 02:34:51;;;;;;;25.20;17.75;;;;;;;1.23;100.00;96589.41;5089512;28;20103;-68
2023/12/20 02:37:16;;;;;;;21.08;17.48;;;;;;;1.20;100.00;96590.34;5087551;28;20028;-67
2023/12/20 02:39:42;;;;;;;19.90;17.38;;;;;;;1.13;100.00;96578.56;5092810;28;20688;-67
2023/12/20 02:42:07;;;;;;;20.90;17.40;;;;;;;1.04;100.00;96579.75;5091157;28;20046;-69
2023/12/20 02:44:32;;;;;;;21.00;17.67;;;;;;;1.11;100.00;96570.00;5091982;28;20016;-69
2023/12/20 02:46:58;;;;;;;21.13;16.85;;;;;;;1.13;100.00;96565.59;5088186;28;20069;-69
2023/12/20 02:49:23;;;;;;;16.10;14.43;;;;;;;1.28;100.00;96559.75;5091902;28;20519;-69
2023/12/20 02:51:49;;;;;;;23.08;14.95;;;;;;;1.35;100.00;96562.09;5088519;28;20027;-69
2023/12/20 02:54:14;;;;;;;22.20;16.67;;;;;;;1.37;100.00;96565.47;5083742;28;20021;-68
2023/12/20 02:56:39;;;;;;;23.85;18.02;;;;;;;1.41;100.00;96560.06;5085538;28;20516;-69
2023/12/20 02:59:08;;;;;;;24.17;17.65;;;;;;;1.44;100.00;96553.94;5090872;28;20069;-69
2023/12/20 03:01:35;;;;;;;22.58;18.45;;;;;;;1.43;100.00;96553.06;5091541;28;20019;-69
2023/12/20 03:04:00;;;;;;;23.95;19.20;;;;;;;1.47;100.00;96552.97;5086106;28;20035;-69
2023/12/20 03:06:26;;;;;;;21.90;18.38;;;;;;;1.53;100.00;96550.94;5092352;28;20508;-68
2023/12/20 03:08:51;;;;;;;23.30;18.23;;;;;;;1.56;100.00;96557.75;5094639;28;20054;-69
2023/12/20 03:11:17;;;;;;;24.25;18.63;;;;;;;1.66;100.00;96566.84;5091102;28;20111;-69
2023/12/20 03:13:42;;;;;;;21.70;18.55;;;;;;;1.73;100.00;96566.59;5090092;28;20012;-69
2023/12/20 03:16:12;;;;;;;25.30;19.73;;;;;;;1.68;100.00;96570.22;5088584;28;20089;-69
2023/12/20 03:18:37;;;;;;;27.05;20.17;;;;;;;1.69;100.00;96581.44;5089613;28;20031;-69
2023/12/20 03:21:04;;;;;;;25.88;19.90;;;;;;;1.66;100.00;96581.56;5092267;28;20016;-69
2023/12/20 03:23:30;;;;;;;23.27;19.85;;;;;;;1.67;100.00;96578.94;5085081;28;20028;-69
2023/12/20 03:25:56;;;;;;;23.60;19.50;;;;;;;1.67;100.00;96576.31;5092214;28;20023;-69
2023/12/20 03:28:22;;;;;;;23.48;19.80;;;;;;;1.63;100.00;96572.16;5087864;28;20027;-69
2023/12/20 03:30:48;;;;;;;22.58;19.67;;;;;;;1.70;100.00;96573.59;5093147;28;20039;-69
2023/12/20 03:33:13;;;;;;;23.73;20.08;;;;;;;1.70;100.00;96565.81;5093904;28;20031;-69
2023/12/20 03:35:39;;;;;;;22.92;19.73;;;;;;;1.67;100.00;96562.50;5093888;28;20062;-69
2023/12/20 03:38:04;;;;;;;22.58;19.52;;;;;;;1.62;100.00;96564.44;5091145;28;20031;-69
2023/12/20 03:40:30;;;;;;;25.88;19.45;;;;;;;1.60;100.00;96551.53;5093736;28;20019;-69
2023/12/20 03:42:55;;;;;;;27.48;20.48;;;;;;;1.57;100.00;96541.28;5096050;28;20024;-69
2023/12/20 03:45:21;;;;;;;21.88;19.42;;;;;;;1.56;100.00;96542.19;5095512;28;20026;-69
2023/12/20 03:47:47;;;;;;;23.55;19.98;;;;;;;1.58;100.00;96537.75;5096416;28;20036;-69
2023/12/20 03:50:13;;;;;;;32.72;21.13;;;;;;;1.65;100.00;96528.78;5090088;28;20060;-68
2023/12/20 03:52:38;;;;;;;23.95;19.55;;;;;;;1.62;100.00;96533.28;5090700;28;20055;-69
2023/12/20 03:55:04;;;;;;;26.17;20.45;;;;;;;1.60;100.00;96530.75;5089846;28;20076;-69
2023/12/20 03:57:29;;;;;;;26.58;20.90;;;;;;;1.64;100.00;96527.13;5094034;28;20027;-69
2023/12/20 03:59:54;;;;;;;25.08;19.42;;;;;;;1.61;100.00;96524.66;5093315;28;20048;-69
2023/12/20 04:14:29;;;;;;;83.00;52.78;;;;;;;1.68;100.00;96523.50;5094962;28;20032;-69
2023/12/20 04:16:54;;;;;;;52.78;35.80;;;;;;;1.68;100.00;96528.69;5095532;28;20099;-69
2023/12/20 04:19:19;;;;;;;37.67;30.27;;;;;;;1.67;100.00;96534.78;5094069;28;20063;-69
2023/12/20 04:21:45;;;;;;;34.97;23.25;;;;;;;1.68;100.00;96539.06;5093055;28;20046;-69
2023/12/20 04:24:10;;;;;;;29.48;22.80;;;;;;;1.70;100.00;96523.41;5096964;28;20035;-69
2023/12/20 04:26:36;;;;;;;35.70;22.08;;;;;;;1.74;100.00;96522.38;5096029;28;20023;-66
2023/12/20 04:29:01;;;;;;;25.67;20.98;;;;;;;1.81;100.00;96522.94;5096002;28;20100;-68
2023/12/20 04:31:26;;;;;;;27.08;21.05;;;;;;;1.83;100.00;96521.97;5095415;28;20059;-69
2023/12/20 04:33:52;;;;;;;24.55;20.55;;;;;;;1.81;100.00;96523.81;5101162;28;20133;-68
2023/12/20 04:36:17;;;;;;;31.88;24.75;;;;;;;1.83;100.00;96515.94;5097156;28;20029;-69
2023/12/20 04:38:42;;;;;;;25.88;21.20;;;;;;;1.83;100.00;96523.72;5093494;28;20024;-69
2023/12/20 04:41:08;;;;;;;26.73;20.92;;;;;;;1.83;100.00;96524.56;5091667;28;20034;-69
2023/12/20 04:43:33;;;;;;;24.75;21.17;;;;;;;1.81;100.00;96529.00;5097012;28;20016;-69
2023/12/20 04:45:59;;;;;;;44.30;32.63;;;;;;;1.83;100.00;96532.38;5090999;28;20028;-69
2023/12/20 04:48:24;;;;;;;27.65;23.55;;;;;;;1.85;100.00;96532.28;5093571;28;20063;-69
2023/12/20 04:50:49;;;;;;;22.75;19.30;;;;;;;1.91;100.00;96529.44;5095591;28;21997;-68
2023/12/20 04:53:15;;;;;;;24.60;18.80;;;;;;;1.88;100.00;96534.78;5087563;28;20477;-68
2023/12/20 04:55:40;;;;;;;26.55;20.63;;;;;;;1.94;100.00;96536.22;5096149;28;20085;-68
2023/12/20 04:58:05;;;;;;;24.25;20.63;;;;;;;1.92;100.00;96535.47;5099441;28;20119;-67
2023/12/20 05:00:31;;;;;;;23.90;21.30;;;;;;;1.83;100.00;96537.56;5094734;28;20488;-68
2023/12/20 05:02:56;;;;;;;27.40;24.60;;;;;;;1.78;100.00;96541.25;5096345;28;20480;-68
2023/12/20 05:05:22;;;;;;;33.67;27.77;;;;;;;1.74;100.00;96524.97;5085432;28;20485;-68
2023/12/20 05:07:47;;;;;;;32.05;27.20;;;;;;;1.75;100.00;96518.03;5090594;28;20103;-67
2023/12/20 05:10:12;;;;;;;30.48;22.77;;;;;;;1.77;100.00;96531.78;5089516;28;20036;-68
2023/12/20 05:12:38;;;;;;;24.58;21.98;;;;;;;1.76;100.00;96517.94;5093811;28;20472;-68
2023/12/20 05:15:07;;;;;;;26.70;23.17;;;;;;;1.76;100.00;96522.31;5089416;28;20028;-67
2023/12/20 05:17:33;;;;;;;31.88;27.33;;;;;;;1.72;100.00;96526.78;5097513;28;20046;-68
2023/12/20 05:19:58;;;;;;;27.02;24.23;;;;;;;1.75;100.00;96518.03;5091241;28;20051;-67
2023/12/20 05:22:24;;;;;;;25.40;22.35;;;;;;;1.71;100.00;96505.19;5096240;28;20031;-67
2023/12/20 05:24:49;;;;;;;26.15;23.10;;;;;;;1.69;100.00;96499.22;5093929;28;20032;-67
2023/12/20 05:27:14;;;;;;;29.73;21.73;;;;;;;1.72;100.00;96506.00;5092723;28;20029;-67
2023/12/20 05:29:40;;;;;;;24.35;21.73;;;;;;;1.74;100.00;96495.56;5092927;28;20409;-67
2023/12/20 05:32:05;;;;;;;37.03;32.75;;;;;;;1.76;100.00;96491.16;5093124;28;20392;-67
2023/12/20 05:34:31;;;;;;;33.92;30.25;;;;;;;1.81;100.00;96494.38;5090020;28;20032;-67
2023/12/20 05:36:58;;;;;;;27.80;24.70;;;;;;;1.82;100.00;96496.06;5095175;28;20028;-67
2023/12/20 05:39:23;;;;;;;27.23;24.42;;;;;;;1.83;100.00;96485.63;5094353;28;20028;-67
2023/12/20 05:41:48;;;;;;;30.45;25.48;;;;;;;1.83;100.00;96495.16;5092085;28;20023;-67
2023/12/20 05:44:14;;;;;;;26.48;22.88;;;;;;;1.83;100.00;96496.00;5090126;28;20115;-67
2023/12/20 05:46:40;;;;;;;23.90;21.35;;;;;;;1.82;100.00;96489.13;5091840;28;20024;-67
2023/12/20 05:49:06;;;;;;;36.15;32.25;;;;;;;1.84;100.00;96496.84;5090822;28;20023;-67
2023/12/20 05:51:31;;;;;;;53.75;48.35;;;;;;;1.86;100.00;96489.81;5086506;28;20036;-67
2023/12/20 05:53:56;;;;;;;38.92;34.50;;;;;;;1.89;100.00;96489.72;5095489;28;20040;-67
2023/12/20 05:56:22;;;;;;;30.77;27.48;;;;;;;1.92;100.00;96489.56;5088777;28;20127;-68
2023/12/20 05:58:47;;;;;;;29.15;25.42;;;;;;;1.90;100.00;96485.34;5089439;28;20026;-68
2023/12/20 06:01:16;;;;;;;28.90;24.80;;;;;;;1.90;100.00;96486.19;5093304;28;20032;-67
2023/12/20 06:03:42;;;;;;;31.98;28.45;;;;;;;1.88;100.00;96481.97;5093421;28;20039;-67
2023/12/20 06:06:08;;;;;;;38.95;34.80;;;;;;;1.86;100.00;96490.69;5096844;28;20020;-67
2023/12/20 06:08:34;;;;;;;27.27;24.40;;;;;;;1.93;100.00;96490.38;5099528;28;20054;-67
2023/12/20 06:10:59;;;;;;;25.27;22.58;;;;;;;1.89;100.00;96486.25;5096878;28;20032;-68
2023/12/20 06:13:24;;;;;;;26.88;23.98;;;;;;;1.88;100.00;96487.16;5093846;28;20055;-67
2023/12/20 06:15:50;;;;;;;28.08;22.77;;;;;;;1.97;100.00;96494.53;5093506;28;20502;-67
2023/12/20 06:18:16;;;;;;;30.23;24.38;;;;;;;1.90;100.00;96491.38;5091809;28;20031;-67
2023/12/20 06:20:41;;;;;;;27.95;23.25;;;;;;;1.83;100.00;96485.63;5090753;28;20090;-68
2023/12/20 06:23:07;;;;;;;29.20;22.75;;;;;;;1.72;100.00;96485.25;5093827;28;20028;-67
2023/12/20 06:25:32;;;;;;;27.42;22.92;;;;;;;1.76;100.00;96483.38;5091317;28;20031;-67
2023/12/20 06:27:57;;;;;;;27.23;24.42;;;;;;;1.65;100.00;96473.44;5087749;28;20028;-67
2023/12/20 06:30:24;;;;;;;29.55;26.30;;;;;;;1.57;100.00;96469.44;5093160;28;20668;-65
2023/12/20 06:32:50;;;;;;;29.25;26.17;;;;;;;1.57;100.00;96463.41;5094676;28;20489;-67
2023/12/20 06:35:15;;;;;;;35.63;27.00;;;;;;;1.57;100.00;96463.41;5090964;28;20081;-67
2023/12/20 06:37:42;;;;;;;32.90;29.30;;;;;;;1.54;100.00;96463.53;5089945;28;20023;-67
2023/12/20 06:40:10;;;;;;;34.88;28.33;;;;;;;1.52;100.00;96465.38;5095355;28;20111;-67
2023/12/20 06:42:35;;;;;;;31.98;28.52;;;;;;;1.50;100.00;96456.81;5090216;28;20024;-67
2023/12/20 06:45:01;;;;;;;32.10;27.83;;;;;;;1.48;100.00;96443.88;5092766;28;20373;-68
2023/12/20 06:47:26;;;;;;;32.78;28.60;;;;;;;1.48;100.00;96451.66;5099172;28;20032;-67
2023/12/20 06:49:52;;;;;;;36.03;28.63;;;;;;;1.62;100.00;96445.88;5087871;28;20269;-67
2023/12/20 06:52:17;;;;;;;34.67;29.13;;;;;;;1.57;100.00;96453.88;5090095;28;20039;-67
2023/12/20 06:54:42;;;;;;;36.67;28.60;;;;;;;1.53;100.00;96456.66;5087228;28;20024;-67
2023/12/20 06:57:08;;;;;;;35.50;30.40;;;;;;;1.52;100.00;96455.81;5095034;28;20390;-67
2023/12/20 06:59:38;;;;;;;32.55;28.90;;;;;;;1.53;100.00;96454.06;5091154;28;20028;-67
2023/12/20 07:02:05;;;;;;;33.15;29.58;;;;;;;1.50;100.00;96455.03;5088884;28;20063;-67
2023/12/20 07:04:30;;;;;;;34.00;30.35;;;;;;;1.52;100.00;96449.78;5094484;28;20090;-67
2023/12/20 07:06:57;;;;;;;33.28;29.55;;;;;;;1.53;100.00;96447.09;5087261;28;20047;-67
2023/12/20 07:09:22;;;;;;;29.20;26.20;;;;;;;1.59;100.00;96447.78;5090306;28;20036;-67
2023/12/20 07:11:48;;;;;;;31.02;26.90;;;;;;;1.66;100.00;96450.03;5092307;28;20030;-68
2023/12/20 07:14:14;;;;;;;30.42;26.55;;;;;;;1.73;100.00;96447.97;5094002;28;20468;-66
2023/12/20 07:16:40;;;;;;;35.47;27.30;;;;;;;1.76;100.00;96457.41;5099138;28;20028;-66
2023/12/20 07:19:05;;;;;;;28.25;24.83;;;;;;;1.81;100.00;96456.28;5093649;28;20036;-67
2023/12/20 07:21:31;;;;;;;32.85;26.85;;;;;;;1.82;100.00;96468.34;5094497;28;20035;-67
2023/12/20 07:23:56;;;;;;;30.75;26.33;;;;;;;1.83;100.00;96474.38;5095079;28;20073;-66
2023/12/20 07:26:21;;;;;;;31.55;27.33;;;;;;;1.80;100.00;96469.31;5095897;28;20063;-65
2023/12/20 07:28:47;;;;;;;38.45;27.90;;;;;;;1.82;100.00;96463.16;5093108;28;20062;-66
2023/12/20 07:31:12;;;;;;;29.92;26.85;;;;;;;1.83;100.00;96458.81;5092305;28;20079;-63
2023/12/20 07:33:38;;;;;;;30.40;27.15;;;;;;;1.84;100.00;96460.47;5095823;28;20024;-63
2023/12/20 07:36:03;;;;;;;33.63;29.25;;;;;;;1.79;100.00;96462.44;5097640;28;20035;-65
2023/12/20 07:38:29;;;;;;;31.98;28.63;;;;;;;1.77;100.00;96459.94;5076225;28;20020;-65
2023/12/20 07:40:54;;;;;;;35.30;28.30;;;;;;;1.75;100.00;96466.94;5095848;28;20075;-66
2023/12/20 07:43:20;;;;;;;39.10;33.15;;;;;;;1.75;100.00;96464.34;5086462;28;20050;-66
2023/12/20 07:45:45;;;;;;;39.88;30.98;;;;;;;1.76;100.00;96458.22;5094675;28;20030;-66
2023/12/20 07:48:10;;;;;;;41.15;31.98;;;;;;;1.80;100.00;96456.34;5095933;28;20047;-66
2023/12/20 07:50:36;;;;;;;34.83;30.58;;;;;;;1.79;100.00;96450.31;5094728;28;20027;-65
2023/12/20 07:53:03;;;;;;;34.90;31.20;;;;;;;1.85;100.00;96449.19;5091832;28;20028;-67
2023/12/20 07:55:30;;;;;;;39.67;31.83;;;;;;;1.87;100.00;96436.97;5090873;28;20119;-67
2023/12/20 07:57:55;;;;;;;37.75;31.52;;;;;;;1.87;100.00;96436.97;5094466;28;20016;-66
2023/12/20 08:00:21;;;;;;;41.40;32.65;;;;;;;1.88;100.00;96451.66;5093897;28;20098;-67
2023/12/20 08:02:46;;;;;;;45.90;35.92;;;;;;;1.89;100.00;96455.94;5092919;28;20103;-67
2023/12/20 08:05:11;;;;;;;46.17;40.05;;;;;;;1.95;100.00;96460.00;5087818;28;20031;-67
2023/12/20 08:07:37;;;;;;;55.13;49.00;;;;;;;1.99;100.00;96459.78;5091045;28;20027;-67
2023/12/20 08:10:02;;;;;;;58.05;47.30;;;;;;;2.02;100.00;96463.16;5087613;28;20079;-64
2023/12/20 08:12:28;;;;;;;54.78;44.90;;;;;;;2.05;100.00;96463.88;5094116;28;20028;-67
2023/12/20 08:14:54;;;;;;;51.50;41.90;;;;;;;2.08;100.00;96468.06;5092588;28;20054;-67
2023/12/20 08:17:19;;;;;;;44.33;35.47;;;;;;;2.08;100.00;96457.69;5090089;28;20028;-67
2023/12/20 08:19:45;;;;;;;42.78;34.83;;;;;;;2.08;100.00;96468.94;5093076;28;20070;-66
2023/12/20 08:22:11;;;;;;;40.35;35.75;;;;;;;2.12;100.00;96473.06;5094264;28;20110;-67
2023/12/20 08:24:36;;;;;;;37.97;33.33;;;;;;;2.12;100.00;96485.22;5090456;28;20021;-67
2023/12/20 08:27:02;;;;;;;36.72;32.20;;;;;;;2.17;100.00;96487.59;5091799;28;20020;-67
2023/12/20 08:29:27;;;;;;;34.05;28.10;;;;;;;2.18;100.00;96494.47;5092261;28;20373;-67
2023/12/20 08:31:54;;;;;;;31.50;28.08;;;;;;;2.24;100.00;96504.59;5093408;28;20028;-67
2023/12/20 08:34:19;;;;;;;38.58;33.83;;;;;;;2.28;100.00;96496.56;5093266;28;20490;-67
2023/12/20 08:36:44;;;;;;;36.58;32.47;;;;;;;2.18;100.00;96500.53;5088173;28;20031;-67
2023/12/20 08:39:10;;;;;;;38.58;33.15;;;;;;;2.20;100.00;96514.28;5091413;28;20524;-67
2023/12/20 08:41:36;;;;;;;38.80;32.47;;;;;;;2.21;100.00;96528.97;5087330;28;20031;-67
2023/12/20 08:44:02;;;;;;;35.08;30.15;;;;;;;2.28;100.00;96519.97;5089426;28;20015;-68
2023/12/20 08:46:27;;;;;;;29.13;24.58;;;;;;;2.31;100.00;96520.72;5093920;28;20411;-68
2023/12/20 08:48:53;;;;;;;29.30;26.10;;;;;;;2.26;100.00;96518.38;5092461;28;20024;-67
2023/12/20 08:51:18;;;;;;;30.65;27.40;;;;;;;2.19;100.00;96515.19;5089553;28;20032;-67
2023/12/20 08:53:45;;;;;;;32.58;29.38;;;;;;;2.21;100.00;96513.38;5091906;28;20023;-68
2023/12/20 08:56:10;;;;;;;31.98;28.50;;;;;;;2.24;100.00;96523.63;5092620;28;20469;-67
2023/12/20 08:58:35;;;;;;;35.03;31.35;;;;;;;2.25;100.00;96520.09;5096014;28;20069;-67
2023/12/20 09:01:01;;;;;;;36.38;31.40;;;;;;;2.29;100.00;96519.03;5089699;28;20152;-67
2023/12/20 09:03:26;;;;;;;35.35;31.65;;;;;;;2.37;100.00;96515.28;5090467;28;20515;-67
2023/12/20 09:05:52;;;;;;;36.30;31.38;;;;;;;2.37;100.00;96515.28;5090145;28;20112;-67
2023/12/20 09:08:18;;;;;;;34.35;30.65;;;;;;;2.39;100.00;96511.66;5088083;28;20020;-67
2023/12/20 09:10:44;;;;;;;33.33;29.45;;;;;;;2.40;100.00;96515.13;5094541;28;20357;-67
2023/12/20 09:13:09;;;;;;;37.33;30.58;;;;;;;2.44;100.00;96521.84;5093701;28;20027;-67
2023/12/20 09:15:35;;;;;;;32.78;29.15;;;;;;;2.47;100.00;96523.50;5090177;28;20016;-67
2023/12/20 09:18:01;;;;;;;32.70;29.40;;;;;;;2.51;100.00;96518.03;5093120;28;20552;-68
2023/12/20 09:20:27;;;;;;;33.13;29.48;;;;;;;2.50;100.00;96516.38;5087745;28;20402;-67
2023/12/20 09:22:52;;;;;;;33.88;29.75;;;;;;;2.59;100.00;96525.50;5089254;28;20121;-68
2023/12/20 09:25:18;;;;;;;33.72;30.13;;;;;;;2.64;100.00;96517.47;5086883;28;20071;-68
2023/12/20 09:27:44;;;;;;;32.08;27.77;;;;;;;2.73;100.00;96504.03;5093012;28;20481;-67
2023/12/20 09:30:09;;;;;;;32.58;27.90;;;;;;;2.85;100.00;96518.19;5086597;28;20034;-67
2023/12/20 09:32:35;;;;;;;30.98;27.48;;;;;;;2.97;100.00;96516.75;5088223;28;20558;-67
2023/12/20 09:35:01;;;;;;;32.50;28.75;;;;;;;3.18;100.00;96520.09;5089944;28;20450;-67
2023/12/20 09:37:27;;;;;;;34.75;30.50;;;;;;;3.23;100.00;96523.31;5089748;28;20023;-67
2023/12/20 09:39:53;;;;;;;46.63;41.60;;;;;;;3.24;100.00;96518.94;5089701;28;20055;-67
2023/12/20 09:42:25;;;;;;;36.22;32.33;;;;;;;3.19;100.00;96524.38;5091053;28;20040;-67
2023/12/20 09:44:50;;;;;;;32.70;29.00;;;;;;;3.29;100.00;96529.97;5092285;28;20024;-67
2023/12/20 09:47:22;;;;;;;30.20;26.35;;;;;;;3.30;100.00;96536.84;5088048;28;20021;-67
2023/12/20 09:49:47;;;;;;;26.05;23.40;;;;;;;3.34;100.00;96530.56;5085767;28;20496;-67
2023/12/20 09:52:15;;;;;;;28.48;25.50;;;;;;;3.34;100.00;96537.56;5089069;28;20050;-67
2023/12/20 09:54:41;;;;;;;30.77;26.13;;;;;;;3.36;100.00;96552.16;5087235;28;20020;-67
2023/12/20 09:57:07;;;;;;;28.63;25.67;;;;;;;3.36;100.00;96551.34;5085154;28;20115;-67
2023/12/20 09:59:32;;;;;;;27.98;24.88;;;;;;;3.38;100.00;96544.28;5085711;28;20073;-67
2023/12/20 10:01:58;;;;;;;30.95;25.55;;;;;;;3.37;100.00;96548.63;5088982;28;20028;-67
2023/12/20 10:04:25;;;;;;;29.02;25.00;;;;;;;3.42;100.00;96551.84;5092438;28;20023;-67
2023/12/20 10:06:52;;;;;;;28.45;25.58;;;;;;;3.43;100.00;96553.56;5095230;28;20027;-67
2023/12/20 10:09:17;;;;;;;30.05;27.05;;;;;;;3.41;100.00;96557.97;5089505;28;20024;-67
2023/12/20 10:11:42;;;;;;;33.08;27.85;;;;;;;3.42;100.00;96556.22;5094232;28;20035;-67
2023/12/20 10:14:08;;;;;;;29.80;26.08;;;;;;;3.48;100.00;96555.09;5089985;28;20087;-68
2023/12/20 10:16:34;;;;;;;29.65;25.98;;;;;;;3.58;100.00;96538.06;5092506;28;20016;-68
2023/12/20 10:19:01;;;;;;;30.30;27.13;;;;;;;3.68;100.00;96533.22;5083755;28;20043;-67
2023/12/20 10:21:26;;;;;;;29.55;26.45;;;;;;;3.79;100.00;96524.88;5088101;28;20392;-67
2023/12/20 10:23:57;;;;;;;29.42;26.35;;;;;;;3.95;100.00;96528.38;5086788;28;20459;-67
2023/12/20 10:26:25;;;;;;;29.77;26.45;;;;;;;4.21;100.00;96528.75;5084599;28;20032;-67
2023/12/20 10:28:53;;;;;;;28.15;25.33;;;;;;;4.38;100.00;96527.81;5084739;28;20499;-67
2023/12/20 10:31:33;;;;;;;30.55;27.35;;;;;;;4.50;100.00;96525.50;5090953;28;20028;-67
2023/12/20 10:34:00;;;;;;;27.95;24.40;;;;;;;4.66;100.00;96534.16;5088245;28;20099;-67
2023/12/20 10:36:27;;;;;;;28.98;25.75;;;;;;;4.84;100.00;96532.28;5088139;28;20043;-68
2023/12/20 10:38:53;;;;;;;29.55;26.45;;;;;;;4.93;100.00;96545.75;5092054;28;20020;-67
2023/12/20 10:41:28;;;;;;;27.35;24.55;;;;;;;4.86;100.00;96551.31;5087747;28;20041;-68
2023/12/20 10:44:02;;;;;;;23.30;20.80;;;;;;;4.80;100.00;96543.84;5089019;28;20035;-68
2023/12/20 10:46:29;;;;;;;22.90;20.33;;;;;;;4.70;100.00;96550.47;5087607;28;20496;-68
2023/12/20 10:48:56;;;;;;;21.63;19.42;;;;;;;4.63;100.00;96549.13;5088821;28;20040;-68
2023/12/20 10:51:23;;;;;;;22.52;20.35;;;;;;;4.61;100.00;96543.16;5087006;28;20025;-68
2023/12/20 10:53:50;;;;;;;22.63;20.30;;;;;;;4.55;100.00;96547.78;5086811;28;20024;-67
2023/12/20 10:56:18;;;;;;;22.75;20.10;;;;;;;4.56;100.00;96552.09;5084220;28;20473;-68
2023/12/20 10:58:44;;;;;;;27.38;24.67;;;;;;;4.48;100.00;96558.63;5089426;28;20112;-68
2023/12/20 11:01:13;;;;;;;25.35;22.50;;;;;;;4.41;100.00;96545.09;5071561;28;20458;-68
2023/12/20 11:03:50;;;;;;;24.40;21.80;;;;;;;4.46;100.00;96545.66;5089325;28;20035;-68
2023/12/20 11:06:47;;;;;;;27.10;23.70;;;;;;;4.49;100.00;96542.06;5088524;28;20027;-68
2023/12/20 11:09:29;;;;;;;30.50;26.73;;;;;;;4.48;100.00;96538.59;5094978;28;20059;-68
2023/12/20 11:12:16;;;;;;;24.95;22.35;;;;;;;4.52;100.00;96541.91;5089271;28;20096;-68
2023/12/20 11:14:52;;;;;;;23.95;21.33;;;;;;;4.43;100.00;96533.66;5091064;28;20043;-68
2023/12/20 11:17:18;;;;;;;23.38;21.05;;;;;;;4.38;100.00;96532.22;5087987;28;20028;-68
2023/12/20 11:19:52;;;;;;;25.08;22.23;;;;;;;4.41;100.00;96527.66;5090738;28;20467;-68
2023/12/20 11:22:22;;;;;;;23.80;21.23;;;;;;;4.46;100.00;96521.38;5091005;28;20067;-68
2023/12/20 11:24:48;;;;;;;27.20;24.48;;;;;;;4.53;100.00;96518.34;5086241;28;20023;-68